Time;durP1;ratioP1;P1;durP2;ratioP2;P2;SDS_P1;SDS_P2;PMS_P1;PMS_P2;Temp;Humidity;BMP_temperature;BMP_pressure;BME280_temperature;BME280_humidity;BME280_pressure;Samples;Min_cycle;Max_cycle;Signal;HPM_P1;HPM_P2
2024/01/07 00:00:16;;;;;;;9.40;8.32;;;;;;;;;;5046665;27;99847;-78
2024/01/07 00:02:42;;;;;;;13.60;10.25;;;;;;;;;;5047688;27;98259;-78
2024/01/07 00:05:09;;;;;;;11.57;9.50;;;;;;;;;;5051160;27;99744;-76
2024/01/07 00:07:35;;;;;;;15.15;10.05;;;;;;;;;;5047087;27;98144;-76
2024/01/07 00:10:02;;;;;;;6.93;6.30;;;;;;;;;;5047343;27;99558;-77
2024/01/07 00:12:29;;;;;;;7.00;5.60;;;;;;;;;;5046847;27;100192;-77
2024/01/07 00:14:55;;;;;;;11.23;7.85;;;;;;;;;;5045935;27;98293;-78
2024/01/07 00:17:23;;;;;;;11.20;7.47;;;;;;;;;;5047389;27;100166;-77
2024/01/07 00:19:49;;;;;;;6.57;5.93;;;;;;;;;;5047277;27;100426;-77
2024/01/07 00:22:16;;;;;;;9.50;8.65;;;;;;;;;;5046711;27;99372;-77
2024/01/07 00:24:42;;;;;;;7.47;6.70;;;;;;;;;;5047622;27;98741;-77
2024/01/07 00:27:09;;;;;;;10.25;8.23;;;;;;;;;;5050271;27;100139;-78
2024/01/07 00:29:35;;;;;;;9.48;7.95;;;;;;;;;;5045627;27;99524;-76
2024/01/07 00:32:02;;;;;;;9.82;8.68;;;;;;;;;;5046976;27;99461;-78
2024/01/07 00:34:28;;;;;;;10.45;7.20;;;;;;;;;;5047203;27;98231;-77
2024/01/07 00:36:55;;;;;;;8.27;7.47;;;;;;;;;;5045959;27;99142;-77
2024/01/07 00:39:22;;;;;;;8.35;7.15;;;;;;;;;;5045641;27;102476;-77
2024/01/07 00:41:49;;;;;;;5.40;4.97;;;;;;;;;;5045921;27;98288;-77
2024/01/07 00:44:15;;;;;;;7.53;6.90;;;;;;;;;;5050090;27;98681;-77
2024/01/07 00:46:42;;;;;;;7.63;6.93;;;;;;;;;;5049554;27;100209;-78
2024/01/07 00:49:13;;;;;;;10.43;9.43;;;;;;;;;;5055758;27;98079;-77
2024/01/07 00:51:39;;;;;;;5.55;5.03;;;;;;;;;;5053414;27;99910;-78
2024/01/07 00:54:06;;;;;;;9.48;7.78;;;;;;;;;;5053084;27;98178;-77
2024/01/07 00:56:32;;;;;;;6.78;6.10;;;;;;;;;;5055462;27;98528;-77
2024/01/07 00:58:59;;;;;;;7.57;6.88;;;;;;;;;;5055744;27;101689;-78
2024/01/07 01:01:25;;;;;;;7.15;6.43;;;;;;;;;;5054128;27;98252;-77
2024/01/07 01:03:52;;;;;;;8.90;8.10;;;;;;;;;;5054603;27;99309;-77
2024/01/07 01:06:19;;;;;;;9.13;8.32;;;;;;;;;;5051044;27;98816;-77
2024/01/07 01:08:45;;;;;;;10.20;8.45;;;;;;;;;;5050033;27;98274;-76
2024/01/07 01:11:12;;;;;;;8.20;5.72;;;;;;;;;;5053367;27;99444;-76
2024/01/07 01:13:38;;;;;;;9.63;8.68;;;;;;;;;;5051517;27;98786;-77
2024/01/07 01:16:05;;;;;;;7.22;6.55;;;;;;;;;;5049460;27;101103;-76
2024/01/07 01:18:31;;;;;;;9.55;8.35;;;;;;;;;;5054408;27;99120;-77
2024/01/07 01:20:58;;;;;;;8.27;6.18;;;;;;;;;;5050461;27;98228;-77
2024/01/07 01:23:24;;;;;;;12.43;7.63;;;;;;;;;;5050695;27;98843;-77
2024/01/07 01:25:50;;;;;;;20.27;9.02;;;;;;;;;;5048801;27;99820;-78
2024/01/07 01:28:17;;;;;;;9.85;7.57;;;;;;;;;;5050022;27;97993;-78
2024/01/07 01:30:43;;;;;;;7.95;7.18;;;;;;;;;;5050531;27;98302;-77
2024/01/07 01:33:10;;;;;;;11.70;8.80;;;;;;;;;;5051279;27;98769;-77
2024/01/07 01:35:37;;;;;;;10.95;7.75;;;;;;;;;;5053799;27;101386;-77
2024/01/07 01:38:03;;;;;;;11.27;8.82;;;;;;;;;;5051529;27;100393;-77
2024/01/07 01:40:31;;;;;;;9.73;8.55;;;;;;;;;;5048091;27;98269;-76
2024/01/07 01:42:57;;;;;;;15.00;11.13;;;;;;;;;;5050093;27;98453;-76
2024/01/07 01:45:24;;;;;;;9.52;8.40;;;;;;;;;;5047660;27;101540;-76
2024/01/07 01:47:50;;;;;;;14.85;11.15;;;;;;;;;;5048645;27;98417;-76
2024/01/07 01:50:17;;;;;;;8.30;7.28;;;;;;;;;;5048788;27;99902;-77
2024/01/07 01:52:45;;;;;;;12.43;9.25;;;;;;;;;;5052400;27;99447;-77
2024/01/07 01:55:12;;;;;;;18.27;12.40;;;;;;;;;;5047101;27;99498;-77
2024/01/07 01:57:39;;;;;;;17.13;11.30;;;;;;;;;;5049532;27;98716;-77
2024/01/07 02:00:06;;;;;;;8.20;6.65;;;;;;;;;;5047285;27;98412;-77
2024/01/07 02:02:34;;;;;;;12.25;9.35;;;;;;;;;;5049783;27;98628;-77
2024/01/07 02:05:02;;;;;;;8.13;6.78;;;;;;;;;;5049527;27;99914;-77
2024/01/07 02:07:29;;;;;;;17.45;12.80;;;;;;;;;;5048992;27;98546;-77
2024/01/07 02:09:56;;;;;;;12.38;9.23;;;;;;;;;;5049380;27;99938;-77
2024/01/07 02:12:23;;;;;;;14.43;10.90;;;;;;;;;;5047906;27;101680;-77
2024/01/07 02:14:49;;;;;;;14.43;11.20;;;;;;;;;;5049652;27;98564;-77
2024/01/07 02:17:16;;;;;;;17.83;11.57;;;;;;;;;;5047529;27;101840;-77
2024/01/07 02:19:42;;;;;;;15.65;11.35;;;;;;;;;;5049370;27;98249;-78
2024/01/07 02:22:09;;;;;;;10.40;8.52;;;;;;;;;;5048499;27;98411;-78
2024/01/07 02:24:37;;;;;;;13.10;11.55;;;;;;;;;;5049089;27;99846;-78
2024/01/07 02:27:03;;;;;;;15.05;10.57;;;;;;;;;;5048967;27;98581;-77
2024/01/07 02:29:30;;;;;;;12.88;9.40;;;;;;;;;;5046837;27;98941;-77
2024/01/07 02:31:56;;;;;;;9.85;8.80;;;;;;;;;;5047684;27;100070;-77
2024/01/07 02:34:23;;;;;;;17.60;11.38;;;;;;;;;;5048971;27;98210;-78
2024/01/07 02:36:49;;;;;;;10.40;7.10;;;;;;;;;;5051457;27;99464;-78
2024/01/07 02:39:17;;;;;;;9.48;8.30;;;;;;;;;;5048197;27;98174;-77
2024/01/07 02:41:43;;;;;;;9.15;8.20;;;;;;;;;;5047797;27;98565;-77
2024/01/07 02:44:10;;;;;;;11.68;9.48;;;;;;;;;;5048511;27;98794;-76
2024/01/07 02:46:39;;;;;;;16.48;12.15;;;;;;;;;;5048781;27;98202;-76
2024/01/07 02:49:05;;;;;;;12.23;9.93;;;;;;;;;;5047933;27;98535;-76
2024/01/07 02:51:32;;;;;;;14.50;10.40;;;;;;;;;;5048671;27;100125;-77
2024/01/07 02:53:58;;;;;;;13.00;10.68;;;;;;;;;;5048627;27;98254;-77
2024/01/07 02:56:25;;;;;;;14.95;10.02;;;;;;;;;;5047147;27;101195;-77
2024/01/07 02:58:51;;;;;;;16.85;11.32;;;;;;;;;;5051684;27;99975;-78
2024/01/07 03:01:21;;;;;;;16.85;12.52;;;;;;;;;;5048526;27;98312;-78
2024/01/07 03:03:47;;;;;;;11.95;8.50;;;;;;;;;;5046879;27;99983;-78
2024/01/07 03:06:14;;;;;;;12.95;10.95;;;;;;;;;;5047679;27;98803;-75
2024/01/07 03:08:41;;;;;;;12.75;9.70;;;;;;;;;;5048635;27;99577;-77
2024/01/07 03:11:08;;;;;;;16.77;11.85;;;;;;;;;;5047302;27;100238;-76
2024/01/07 03:13:34;;;;;;;13.70;11.38;;;;;;;;;;5048218;27;98204;-77
2024/01/07 03:16:01;;;;;;;12.30;10.10;;;;;;;;;;5047637;27;99459;-76
2024/01/07 03:18:28;;;;;;;22.73;9.02;;;;;;;;;;5047123;27;99778;-76
2024/01/07 03:20:55;;;;;;;16.98;11.80;;;;;;;;;;5051729;27;98342;-77
2024/01/07 03:23:21;;;;;;;7.35;6.65;;;;;;;;;;5047995;27;100098;-76
2024/01/07 03:25:48;;;;;;;10.35;9.30;;;;;;;;;;5047557;27;98816;-77
2024/01/07 03:28:15;;;;;;;10.85;8.75;;;;;;;;;;5046725;27;100854;-78
2024/01/07 03:30:42;;;;;;;13.20;10.10;;;;;;;;;;5047657;27;100028;-77
2024/01/07 03:33:08;;;;;;;7.45;6.93;;;;;;;;;;5047090;27;98303;-77
2024/01/07 03:35:35;;;;;;;10.73;9.00;;;;;;;;;;5047816;27;99749;-77
2024/01/07 03:38:01;;;;;;;8.13;7.30;;;;;;;;;;5046409;27;100117;-77
2024/01/07 03:40:28;;;;;;;14.82;10.43;;;;;;;;;;5051506;27;98308;-77
2024/01/07 03:42:54;;;;;;;17.30;11.60;;;;;;;;;;5047678;27;99993;-77
2024/01/07 03:45:21;;;;;;;11.73;9.52;;;;;;;;;;5047341;27;98556;-77
2024/01/07 03:47:48;;;;;;;14.02;11.82;;;;;;;;;;5047909;27;99436;-79
2024/01/07 03:50:15;;;;;;;11.32;8.75;;;;;;;;;;5047131;27;100154;-78
2024/01/07 03:52:41;;;;;;;17.13;10.68;;;;;;;;;;5046399;27;98262;-77
2024/01/07 03:55:08;;;;;;;9.52;8.50;;;;;;;;;;5047123;27;99787;-78
2024/01/07 03:57:34;;;;;;;14.48;10.90;;;;;;;;;;5047398;27;100176;-78
2024/01/07 04:00:00;;;;;;;7.28;6.68;;;;;;;;;;5046366;27;98344;-77
2024/01/07 04:02:29;;;;;;;16.92;10.85;;;;;;;;;;5050997;27;98451;-77
2024/01/07 04:04:56;;;;;;;12.70;8.93;;;;;;;;;;5047460;27;98483;-77
2024/01/07 04:07:22;;;;;;;12.07;10.13;;;;;;;;;;5046139;27;98702;-77
2024/01/07 04:09:49;;;;;;;22.88;13.95;;;;;;;;;;5047405;27;99817;-77
2024/01/07 04:12:15;;;;;;;19.25;13.38;;;;;;;;;;5047178;27;98243;-77
2024/01/07 04:14:43;;;;;;;14.57;11.90;;;;;;;;;;5046028;27;98634;-77
2024/01/07 04:17:09;;;;;;;9.88;8.82;;;;;;;;;;5045537;27;100046;-76
2024/01/07 04:19:37;;;;;;;13.18;9.10;;;;;;;;;;5046971;27;98269;-78
2024/01/07 04:22:03;;;;;;;16.38;10.90;;;;;;;;;;5046253;27;99343;-77
2024/01/07 04:24:30;;;;;;;11.77;10.57;;;;;;;;;;5050246;27;100111;-77
2024/01/07 04:26:56;;;;;;;20.75;12.70;;;;;;;;;;5046737;27;99714;-76
2024/01/07 04:29:23;;;;;;;12.38;8.63;;;;;;;;;;5046367;27;100151;-77
2024/01/07 04:31:49;;;;;;;12.70;11.38;;;;;;;;;;5047174;27;98728;-77
2024/01/07 04:34:16;;;;;;;14.18;10.65;;;;;;;;;;5046459;27;99651;-77
2024/01/07 04:36:43;;;;;;;13.85;10.80;;;;;;;;;;5046880;27;100300;-78
2024/01/07 04:39:09;;;;;;;16.55;12.50;;;;;;;;;;5046769;27;98240;-77
2024/01/07 04:41:37;;;;;;;13.70;10.60;;;;;;;;;;5045302;27;99385;-77
2024/01/07 04:44:04;;;;;;;12.18;10.55;;;;;;;;;;5046354;27;100399;-78
2024/01/07 04:46:33;;;;;;;10.50;8.38;;;;;;;;;;5050106;27;98264;-78
2024/01/07 04:48:59;;;;;;;9.88;8.88;;;;;;;;;;5045967;27;99771;-77
2024/01/07 04:51:26;;;;;;;5.65;5.20;;;;;;;;;;5047237;27;99318;-78
2024/01/07 04:53:52;;;;;;;12.52;10.35;;;;;;;;;;5046994;27;99682;-77
2024/01/07 04:56:19;;;;;;;10.88;7.70;;;;;;;;;;5045685;27;100185;-77
2024/01/07 04:58:45;;;;;;;9.25;8.32;;;;;;;;;;5047148;27;98491;-78
2024/01/07 05:01:12;;;;;;;10.43;9.40;;;;;;;;;;5046590;27;99492;-77
2024/01/07 05:03:38;;;;;;;7.90;5.53;;;;;;;;;;5045913;27;98909;-77
2024/01/07 05:06:07;;;;;;;6.15;5.57;;;;;;;;;;5045723;27;98176;-77
2024/01/07 05:08:34;;;;;;;8.43;7.63;;;;;;;;;;5049947;27;99832;-77
2024/01/07 05:11:00;;;;;;;12.23;9.35;;;;;;;;;;5045980;27;98240;-77
2024/01/07 05:13:27;;;;;;;8.57;6.35;;;;;;;;;;5047210;27;99496;-77
2024/01/07 05:15:53;;;;;;;12.65;9.43;;;;;;;;;;5049708;27;100167;-77
2024/01/07 05:18:24;;;;;;;15.38;10.57;;;;;;;;;;5046713;27;98141;-76
2024/01/07 05:20:51;;;;;;;14.15;8.27;;;;;;;;;;5046701;27;99893;-76
2024/01/07 05:23:17;;;;;;;8.70;6.07;;;;;;;;;;5046630;27;98854;-76
2024/01/07 05:25:45;;;;;;;10.00;8.93;;;;;;;;;;5046239;27;98808;-77
2024/01/07 05:28:11;;;;;;;8.88;7.70;;;;;;;;;;5046795;27;99719;-77
2024/01/07 05:30:38;;;;;;;8.27;6.30;;;;;;;;;;5051008;27;99325;-77
2024/01/07 05:33:04;;;;;;;11.15;8.90;;;;;;;;;;5049975;27;99630;-76
2024/01/07 05:35:31;;;;;;;6.13;5.43;;;;;;;;;;5052447;27;100578;-76
2024/01/07 05:37:58;;;;;;;12.35;8.57;;;;;;;;;;5048761;27;98224;-76
2024/01/07 05:40:24;;;;;;;15.15;9.82;;;;;;;;;;5049926;27;99429;-76
2024/01/07 05:42:50;;;;;;;11.77;9.57;;;;;;;;;;5049538;27;100126;-77
2024/01/07 05:45:17;;;;;;;11.05;9.60;;;;;;;;;;5048671;27;98357;-77
2024/01/07 05:47:43;;;;;;;8.10;7.40;;;;;;;;;;5050078;27;99469;-77
2024/01/07 05:50:10;;;;;;;10.60;9.52;;;;;;;;;;5052459;27;100415;-76
2024/01/07 05:52:37;;;;;;;12.77;7.93;;;;;;;;;;5048740;27;99741;-77
2024/01/07 05:55:03;;;;;;;9.05;5.15;;;;;;;;;;5048559;27;100194;-76
2024/01/07 05:57:30;;;;;;;10.80;7.90;;;;;;;;;;5049304;27;98232;-77
2024/01/07 05:59:57;;;;;;;13.07;9.32;;;;;;;;;;5048564;27;99660;-76
2024/01/07 06:02:24;;;;;;;9.13;8.20;;;;;;;;;;5049259;27;100409;-76
2024/01/07 06:04:51;;;;;;;12.45;9.45;;;;;;;;;;5048989;27;98284;-76
2024/01/07 06:07:17;;;;;;;11.95;10.55;;;;;;;;;;5048687;27;99621;-78
2024/01/07 06:09:44;;;;;;;8.23;6.50;;;;;;;;;;5048248;27;99215;-76
2024/01/07 06:12:10;;;;;;;9.88;8.82;;;;;;;;;;5052593;27;98617;-76
2024/01/07 06:14:37;;;;;;;9.07;8.23;;;;;;;;;;5047888;27;100354;-76
2024/01/07 06:17:03;;;;;;;7.50;6.78;;;;;;;;;;5049177;27;98710;-77
2024/01/07 06:19:30;;;;;;;7.88;6.78;;;;;;;;;;5048112;27;99462;-77
2024/01/07 06:21:56;;;;;;;8.18;7.35;;;;;;;;;;5048130;27;99920;-76
2024/01/07 06:24:23;;;;;;;10.43;6.13;;;;;;;;;;5049095;27;98550;-78
2024/01/07 06:26:50;;;;;;;10.10;7.72;;;;;;;;;;5047947;27;98773;-77
2024/01/07 06:29:16;;;;;;;11.73;7.88;;;;;;;;;;5048547;27;100028;-77
2024/01/07 06:31:44;;;;;;;10.20;7.35;;;;;;;;;;5048994;27;98226;-77
2024/01/07 06:34:13;;;;;;;9.77;8.90;;;;;;;;;;5050957;27;99648;-77
2024/01/07 06:36:43;;;;;;;8.60;6.75;;;;;;;;;;5049251;27;98055;-77
2024/01/07 06:39:10;;;;;;;8.15;7.05;;;;;;;;;;5048675;27;99285;-77
2024/01/07 06:41:37;;;;;;;6.45;5.85;;;;;;;;;;5047651;27;99902;-77
2024/01/07 06:44:03;;;;;;;8.43;7.70;;;;;;;;;;5047917;27;99523;-77
2024/01/07 06:46:30;;;;;;;10.45;6.32;;;;;;;;;;5048673;27;99772;-76
2024/01/07 06:48:56;;;;;;;7.22;6.70;;;;;;;;;;5047517;27;98891;-77
2024/01/07 06:51:23;;;;;;;8.45;7.40;;;;;;;;;;5049062;27;98907;-77
2024/01/07 06:53:50;;;;;;;7.10;6.22;;;;;;;;;;5048760;27;99582;-76
2024/01/07 06:56:16;;;;;;;7.55;6.93;;;;;;;;;;5050920;27;100066;-77
2024/01/07 06:58:43;;;;;;;8.75;7.90;;;;;;;;;;5048621;27;99394;-77
2024/01/07 07:01:11;;;;;;;6.45;5.90;;;;;;;;;;5048104;27;99940;-76
2024/01/07 07:03:39;;;;;;;4.90;4.47;;;;;;;;;;5047529;27;98363;-76
2024/01/07 07:06:06;;;;;;;8.23;7.30;;;;;;;;;;5048436;27;99288;-76
2024/01/07 07:08:33;;;;;;;12.45;9.15;;;;;;;;;;5047544;27;100007;-77
2024/01/07 07:11:00;;;;;;;7.95;7.13;;;;;;;;;;5048086;27;98572;-77
2024/01/07 07:13:26;;;;;;;5.32;4.82;;;;;;;;;;5048624;27;99584;-77
2024/01/07 07:15:53;;;;;;;8.95;8.05;;;;;;;;;;5047766;27;100038;-75
2024/01/07 07:18:19;;;;;;;9.55;7.20;;;;;;;;;;5051623;27;97989;-77
2024/01/07 07:20:46;;;;;;;8.73;7.93;;;;;;;;;;5048610;27;100093;-77
2024/01/07 07:23:13;;;;;;;10.43;7.32;;;;;;;;;;5047762;27;98239;-76
2024/01/07 07:25:40;;;;;;;9.15;8.15;;;;;;;;;;5050938;27;99810;-77
2024/01/07 07:28:06;;;;;;;7.65;6.95;;;;;;;;;;5052975;27;99923;-76
2024/01/07 07:30:33;;;;;;;11.35;9.02;;;;;;;;;;5050594;27;98447;-77
2024/01/07 07:32:59;;;;;;;11.55;8.70;;;;;;;;;;5052127;27;99372;-76
2024/01/07 07:35:26;;;;;;;7.35;6.72;;;;;;;;;;5055904;27;98118;-76
2024/01/07 07:37:52;;;;;;;12.05;6.78;;;;;;;;;;5053936;27;98256;-77
2024/01/07 07:40:19;;;;;;;10.20;7.95;;;;;;;;;;5057703;27;99682;-77
2024/01/07 07:42:46;;;;;;;10.18;7.68;;;;;;;;;;5050862;27;98217;-77
2024/01/07 07:45:12;;;;;;;6.82;6.35;;;;;;;;;;5047329;27;99953;-75
2024/01/07 07:47:44;;;;;;;8.80;5.65;;;;;;;;;;5048213;27;100244;-76
2024/01/07 07:50:11;;;;;;;8.07;7.28;;;;;;;;;;5049877;27;98223;-76
2024/01/07 07:52:37;;;;;;;8.38;7.57;;;;;;;;;;5046761;27;99718;-76
2024/01/07 07:55:04;;;;;;;6.40;5.80;;;;;;;;;;5046824;27;98958;-76
2024/01/07 07:57:30;;;;;;;10.65;7.53;;;;;;;;;;5046906;27;98391;-77
2024/01/07 07:59:57;;;;;;;7.80;7.05;;;;;;;;;;5050217;27;98640;-77
2024/01/07 08:02:26;;;;;;;7.60;6.57;;;;;;;;;;5048100;27;98535;-77
2024/01/07 08:04:52;;;;;;;5.10;4.72;;;;;;;;;;5049276;27;99500;-77
2024/01/07 08:07:19;;;;;;;7.25;6.43;;;;;;;;;;5046584;27;98955;-77
2024/01/07 08:09:46;;;;;;;7.40;6.40;;;;;;;;;;5047485;27;98578;-76
2024/01/07 08:12:13;;;;;;;10.60;7.28;;;;;;;;;;5046324;27;99642;-76
2024/01/07 08:14:42;;;;;;;9.23;6.30;;;;;;;;;;5047406;27;100097;-76
2024/01/07 08:17:08;;;;;;;5.97;5.47;;;;;;;;;;5047412;27;98635;-76
2024/01/07 08:19:35;;;;;;;7.97;7.32;;;;;;;;;;5046723;27;99685;-76
2024/01/07 08:22:02;;;;;;;5.97;5.47;;;;;;;;;;5049287;27;99839;-76
2024/01/07 08:24:29;;;;;;;7.95;7.32;;;;;;;;;;5046667;27;98687;-77
2024/01/07 08:26:55;;;;;;;5.10;4.72;;;;;;;;;;5046409;27;100056;-76
2024/01/07 08:29:22;;;;;;;7.25;6.50;;;;;;;;;;5047274;27;98020;-76
2024/01/07 08:31:48;;;;;;;8.20;6.55;;;;;;;;;;5047220;27;99457;-77
2024/01/07 08:34:15;;;;;;;10.75;7.88;;;;;;;;;;5046206;27;99820;-77
2024/01/07 08:36:42;;;;;;;5.82;5.22;;;;;;;;;;5047121;27;98216;-76
2024/01/07 08:39:10;;;;;;;8.50;7.80;;;;;;;;;;5046807;27;99278;-76
2024/01/07 08:41:36;;;;;;;8.73;7.85;;;;;;;;;;5046263;27;99903;-77
2024/01/07 08:44:03;;;;;;;6.30;5.78;;;;;;;;;;5050112;27;98230;-77
2024/01/07 08:46:30;;;;;;;7.30;5.55;;;;;;;;;;5046147;27;100023;-77
2024/01/07 08:48:56;;;;;;;4.47;4.15;;;;;;;;;;5045985;27;98230;-77
2024/01/07 08:51:23;;;;;;;7.18;6.47;;;;;;;;;;5047130;27;99545;-77
2024/01/07 08:53:49;;;;;;;9.30;5.50;;;;;;;;;;5047020;27;100280;-76
2024/01/07 08:56:16;;;;;;;5.72;5.32;;;;;;;;;;5045772;27;99532;-77
2024/01/07 08:58:42;;;;;;;6.15;5.32;;;;;;;;;;5046816;27;99577;-77
2024/01/07 09:01:09;;;;;;;6.28;5.68;;;;;;;;;;5046200;27;100063;-76
2024/01/07 09:03:35;;;;;;;5.95;5.47;;;;;;;;;;5047637;27;98346;-77
2024/01/07 09:06:02;;;;;;;5.68;5.18;;;;;;;;;;5053272;27;99257;-75
2024/01/07 09:08:29;;;;;;;6.90;5.82;;;;;;;;;;5049245;27;98519;-76
2024/01/07 09:10:55;;;;;;;9.73;6.93;;;;;;;;;;5050079;27;99643;-76
2024/01/07 09:13:22;;;;;;;4.93;4.63;;;;;;;;;;5050115;27;100194;-76
2024/01/07 09:15:48;;;;;;;5.20;4.80;;;;;;;;;;5049545;27;98438;-76
2024/01/07 09:18:14;;;;;;;5.85;5.35;;;;;;;;;;5052051;27;99656;-77
2024/01/07 09:20:41;;;;;;;9.05;7.70;;;;;;;;;;5049937;27;99844;-76
2024/01/07 09:23:08;;;;;;;6.20;5.18;;;;;;;;;;5049545;27;98232;-76
2024/01/07 09:25:34;;;;;;;10.32;7.93;;;;;;;;;;5050301;27;99328;-77
2024/01/07 09:28:00;;;;;;;6.55;6.00;;;;;;;;;;5052435;27;99132;-77
2024/01/07 09:30:27;;;;;;;7.95;3.83;;;;;;;;;;5049534;27;99507;-76
2024/01/07 09:32:54;;;;;;;5.47;4.30;;;;;;;;;;5049940;27;100289;-76
2024/01/07 09:35:20;;;;;;;4.97;4.57;;;;;;;;;;5052570;27;98084;-76
2024/01/07 09:37:47;;;;;;;5.55;5.05;;;;;;;;;;5050096;27;98674;-77
2024/01/07 09:40:17;;;;;;;8.77;5.72;;;;;;;;;;5049374;27;100091;-76
2024/01/07 09:42:43;;;;;;;6.70;5.45;;;;;;;;;;5050009;27;98327;-77
2024/01/07 09:45:12;;;;;;;5.60;5.07;;;;;;;;;;5049026;27;99411;-77
2024/01/07 09:47:43;;;;;;;14.68;5.75;;;;;;;;;;5049648;27;99983;-76
2024/01/07 09:50:10;;;;;;;6.47;5.53;;;;;;;;;;5052817;27;98102;-76
2024/01/07 09:52:39;;;;;;;7.43;4.25;;;;;;;;;;5048546;27;99075;-76
2024/01/07 09:55:08;;;;;;;4.72;4.40;;;;;;;;;;5049085;27;98277;-77
2024/01/07 09:57:37;;;;;;;5.95;4.95;;;;;;;;;;5049610;27;99527;-77
2024/01/07 10:00:04;;;;;;;3.53;3.22;;;;;;;;;;5047617;27;99992;-77
2024/01/07 10:02:37;;;;;;;6.50;5.05;;;;;;;;;;5046846;27;98106;-78
2024/01/07 10:05:04;;;;;;;5.93;4.18;;;;;;;;;;5048557;27;99439;-77
2024/01/07 10:07:30;;;;;;;3.83;3.47;;;;;;;;;;5049136;27;99847;-75
2024/01/07 10:09:57;;;;;;;3.13;2.92;;;;;;;;;;5052400;27;98385;-77
2024/01/07 10:12:23;;;;;;;3.15;2.85;;;;;;;;;;5048416;27;100572;-75
2024/01/07 10:14:50;;;;;;;4.93;3.25;;;;;;;;;;5047801;27;99049;-76
2024/01/07 10:17:16;;;;;;;3.97;3.28;;;;;;;;;;5049419;27;99331;-77
2024/01/07 10:19:44;;;;;;;4.22;3.92;;;;;;;;;;5048267;27;99911;-77
2024/01/07 10:22:12;;;;;;;3.17;2.88;;;;;;;;;;5048494;27;99355;-77
2024/01/07 10:24:39;;;;;;;3.88;3.28;;;;;;;;;;5048605;27;99651;-78
2024/01/07 10:27:06;;;;;;;3.08;2.88;;;;;;;;;;5047870;27;100082;-76
2024/01/07 10:29:33;;;;;;;3.38;3.17;;;;;;;;;;5048813;27;98262;-77
2024/01/07 10:32:02;;;;;;;3.65;3.22;;;;;;;;;;5052026;27;99387;-78
2024/01/07 10:34:31;;;;;;;2.67;2.58;;;;;;;;;;5047700;27;98257;-77
2024/01/07 10:37:01;;;;;;;3.03;2.80;;;;;;;;;;5048014;27;98779;-75
2024/01/07 10:39:28;;;;;;;2.95;2.75;;;;;;;;;;5048666;27;100114;-77
2024/01/07 10:41:57;;;;;;;3.58;3.03;;;;;;;;;;5048607;27;98962;-77
2024/01/07 10:44:27;;;;;;;3.60;2.78;;;;;;;;;;5047995;27;98758;-78
2024/01/07 10:46:54;;;;;;;2.92;2.72;;;;;;;;;;5048334;27;99937;-77
2024/01/07 10:49:22;;;;;;;2.83;2.72;;;;;;;;;;5047941;27;98553;-77
2024/01/07 10:51:56;;;;;;;2.95;2.67;;;;;;;;;;5048764;27;99330;-77
2024/01/07 10:54:26;;;;;;;2.63;2.50;;;;;;;;;;5051240;27;100091;-77
2024/01/07 10:56:56;;;;;;;2.17;2.08;;;;;;;;;;5048574;27;99440;-77
2024/01/07 10:59:23;;;;;;;2.30;2.10;;;;;;;;;;5047600;27;99122;-76
2024/01/07 11:01:49;;;;;;;2.67;2.33;;;;;;;;;;5047990;27;98587;-76
2024/01/07 11:04:19;;;;;;;1.30;1.30;;;;;;;;;;5048316;27;99634;-76
2024/01/07 11:06:45;;;;;;;2.17;2.08;;;;;;;;;;5048377;27;100161;-77
2024/01/07 11:09:21;;;;;;;3.20;3.00;;;;;;;;;;5047297;27;98368;-76
2024/01/07 11:11:47;;;;;;;2.83;2.63;;;;;;;;;;5048442;27;99439;-77
2024/01/07 11:14:33;;;;;;;2.55;2.45;;;;;;;;;;5046865;27;100012;-76
2024/01/07 11:16:59;;;;;;;2.20;2.10;;;;;;;;;;5050655;27;98548;-76
2024/01/07 11:19:26;;;;;;;2.05;1.95;;;;;;;;;;5048044;27;100038;-77
2024/01/07 11:21:52;;;;;;;2.47;2.28;;;;;;;;;;5048071;27;98244;-76
2024/01/07 11:24:37;;;;;;;2.17;2.08;;;;;;;;;;5047182;27;99603;-76
2024/01/07 11:27:04;;;;;;;3.00;2.72;;;;;;;;;;5046578;27;99967;-75
2024/01/07 11:29:34;;;;;;;4.38;2.15;;;;;;;;;;5047517;27;98430;-77
2024/01/07 11:32:01;;;;;;;2.47;2.30;;;;;;;;;;5047992;27;99519;-76
2024/01/07 11:34:43;;;;;;;5.18;1.95;;;;;;;;;;5047875;27;99896;-77
2024/01/07 11:37:11;;;;;;;2.13;2.03;;;;;;;;;;5047418;27;98196;-77
2024/01/07 11:39:48;;;;;;;3.80;2.72;;;;;;;;;;5049830;27;99027;-76
2024/01/07 11:42:14;;;;;;;2.80;2.42;;;;;;;;;;5047604;27;98325;-76
2024/01/07 11:44:51;;;;;;;2.95;2.00;;;;;;;;;;5047188;27;99744;-76
2024/01/07 11:47:18;;;;;;;1.60;1.60;;;;;;;;;;5047550;27;100023;-76
2024/01/07 11:49:45;;;;;;;2.60;2.40;;;;;;;;;;5047956;27;98509;-76
2024/01/07 11:52:12;;;;;;;2.05;1.83;;;;;;;;;;5047014;27;99627;-76
2024/01/07 11:54:39;;;;;;;2.13;2.03;;;;;;;;;;5047743;27;99996;-76
2024/01/07 11:57:06;;;;;;;1.88;1.77;;;;;;;;;;5047493;27;98392;-76
2024/01/07 11:59:36;;;;;;;2.42;2.22;;;;;;;;;;5047092;27;99485;-76
2024/01/07 12:02:06;;;;;;;6.65;1.80;;;;;;;;;;5049900;27;98252;-75
2024/01/07 12:04:33;;;;;;;1.92;1.83;;;;;;;;;;5046135;27;99943;-75
2024/01/07 12:07:00;;;;;;;2.85;2.08;;;;;;;;;;5047287;27;100098;-75
2024/01/07 12:09:27;;;;;;;2.20;2.10;;;;;;;;;;5047471;27;98206;-77
2024/01/07 12:11:54;;;;;;;1.70;1.67;;;;;;;;;;5047117;27;99359;-76
2024/01/07 12:14:21;;;;;;;2.30;2.10;;;;;;;;;;5047816;27;99983;-76
2024/01/07 12:16:48;;;;;;;2.47;1.80;;;;;;;;;;5046959;27;98238;-77
2024/01/07 12:19:14;;;;;;;1.60;1.50;;;;;;;;;;5046617;27;99605;-77
2024/01/07 12:21:41;;;;;;;2.22;1.88;;;;;;;;;;5050800;27;99981;-76
2024/01/07 12:24:07;;;;;;;2.25;1.13;;;;;;;;;;5047160;27;99453;-76
2024/01/07 12:26:34;;;;;;;2.80;1.40;;;;;;;;;;5045864;27;99263;-75
2024/01/07 12:29:03;;;;;;;2.60;2.40;;;;;;;;;;5046229;27;98213;-76
2024/01/07 12:31:31;;;;;;;1.55;1.55;;;;;;;;;;5047414;27;99381;-75
2024/01/07 12:33:58;;;;;;;2.45;2.25;;;;;;;;;;5046177;27;99918;-75
2024/01/07 12:36:25;;;;;;;1.35;1.35;;;;;;;;;;5047210;27;98301;-75
2024/01/07 12:38:54;;;;;;;1.75;1.67;;;;;;;;;;5049275;27;98563;-75
2024/01/07 12:41:21;;;;;;;2.47;2.03;;;;;;;;;;5049674;27;99855;-76
2024/01/07 12:43:47;;;;;;;2.03;1.92;;;;;;;;;;5054241;27;98245;-76
2024/01/07 12:46:14;;;;;;;1.95;1.73;;;;;;;;;;5049778;27;99058;-76
2024/01/07 12:48:41;;;;;;;1.45;1.35;;;;;;;;;;5050447;27;99084;-75
2024/01/07 12:51:07;;;;;;;1.52;1.50;;;;;;;;;;5050579;27;99434;-75
2024/01/07 12:53:34;;;;;;;1.30;1.30;;;;;;;;;;5049022;27;100120;-77
2024/01/07 12:56:00;;;;;;;1.67;1.58;;;;;;;;;;5049619;27;98259;-75
2024/01/07 12:58:27;;;;;;;1.77;1.67;;;;;;;;;;5050673;27;99702;-76
2024/01/07 13:00:53;;;;;;;1.85;1.75;;;;;;;;;;5049723;27;100060;-76
2024/01/07 13:03:20;;;;;;;2.05;1.92;;;;;;;;;;5050045;27;98230;-75
2024/01/07 13:05:49;;;;;;;1.92;1.83;;;;;;;;;;5053358;27;99498;-76
2024/01/07 13:08:22;;;;;;;2.10;1.98;;;;;;;;;;5049313;27;98220;-76
2024/01/07 13:10:48;;;;;;;1.55;1.45;;;;;;;;;;5055157;27;99971;-77
2024/01/07 13:13:15;;;;;;;1.25;1.23;;;;;;;;;;5051587;27;98946;-75
2024/01/07 13:15:42;;;;;;;1.33;1.33;;;;;;;;;;5052405;27;98520;-75
2024/01/07 13:18:11;;;;;;;2.00;1.90;;;;;;;;;;5049761;27;99729;-75
2024/01/07 13:20:40;;;;;;;1.83;1.73;;;;;;;;;;5052635;27;98799;-76
2024/01/07 13:23:07;;;;;;;9.57;1.90;;;;;;;;;;5069562;27;98250;-72
2024/01/07 13:25:33;;;;;;;1.20;1.20;;;;;;;;;;5068209;27;98213;-76
2024/01/07 13:28:01;;;;;;;1.50;1.50;;;;;;;;;;5074213;27;100373;-72
2024/01/07 13:30:28;;;;;;;1.65;1.65;;;;;;;;;;5062753;27;99176;-77
2024/01/07 13:32:56;;;;;;;1.80;1.70;;;;;;;;;;5050590;27;99861;-76
2024/01/07 13:35:24;;;;;;;1.50;1.50;;;;;;;;;;5059029;27;98739;-77
2024/01/07 13:37:51;;;;;;;1.05;1.05;;;;;;;;;;5058244;27;99629;-76
2024/01/07 13:40:18;;;;;;;1.48;1.38;;;;;;;;;;5052117;27;99917;-78
2024/01/07 13:42:45;;;;;;;2.83;2.25;;;;;;;;;;5059669;27;98200;-76
2024/01/07 13:45:13;;;;;;;1.08;1.08;;;;;;;;;;5049728;27;100229;-74
2024/01/07 13:47:40;;;;;;;2.38;1.35;;;;;;;;;;5051550;27;100351;-77
2024/01/07 13:50:06;;;;;;;2.47;1.30;;;;;;;;;;5054554;27;98328;-74
2024/01/07 13:52:33;;;;;;;7.20;1.85;;;;;;;;;;5053483;27;99966;-76
2024/01/07 13:54:59;;;;;;;1.70;1.60;;;;;;;;;;5052677;27;98930;-76
2024/01/07 13:57:26;;;;;;;1.63;1.40;;;;;;;;;;5048377;27;99320;-75
2024/01/07 13:59:52;;;;;;;1.10;1.10;;;;;;;;;;5054590;27;98977;-76
2024/01/07 14:02:19;;;;;;;1.45;1.35;;;;;;;;;;5053796;27;98198;-74
2024/01/07 14:04:46;;;;;;;1.90;1.80;;;;;;;;;;5051804;27;99370;-77
2024/01/07 14:07:13;;;;;;;1.60;1.50;;;;;;;;;;5052745;27;100482;-75
2024/01/07 14:09:39;;;;;;;2.72;1.75;;;;;;;;;;5057410;27;98509;-74
2024/01/07 14:12:06;;;;;;;6.30;1.63;;;;;;;;;;5056165;27;100217;-78
2024/01/07 14:14:32;;;;;;;1.70;1.60;;;;;;;;;;5054918;27;98198;-76
2024/01/07 14:16:59;;;;;;;1.52;1.42;;;;;;;;;;5058623;27;99923;-74
2024/01/07 14:19:25;;;;;;;1.33;1.33;;;;;;;;;;5059497;27;100433;-75
2024/01/07 14:21:52;;;;;;;1.25;1.25;;;;;;;;;;5057302;27;99225;-75
2024/01/07 14:24:19;;;;;;;1.55;1.55;;;;;;;;;;5056280;27;100671;-75
2024/01/07 14:26:45;;;;;;;1.20;1.20;;;;;;;;;;5048152;27;99099;-74
2024/01/07 14:29:13;;;;;;;1.92;1.70;;;;;;;;;;5055043;27;99679;-75
2024/01/07 14:31:44;;;;;;;1.70;1.63;;;;;;;;;;5058053;27;99781;-76